Time;durP1;ratioP1;P1;durP2;ratioP2;P2;SDS_P1;SDS_P2;PMS_P1;PMS_P2;Temp;Humidity;BMP_temperature;BMP_pressure;BME280_temperature;BME280_humidity;BME280_pressure;Samples;Min_cycle;Max_cycle;Signal;HPM_P1;HPM_P2
2022/12/16 00:01:14;;;;;;;41.00;20.98;;;;;;;-0.16;70.82;100908.94;5075344;28;20033;-61
2022/12/16 00:03:41;;;;;;;37.15;20.92;;;;;;;-0.16;70.57;100908.94;5075298;28;20073;-62
2022/12/16 00:06:08;;;;;;;42.17;21.65;;;;;;;-0.02;70.40;100908.88;5075457;28;20020;-61
2022/12/16 00:08:36;;;;;;;38.28;20.55;;;;;;;0.13;70.05;100910.50;5075455;28;20036;-61
2022/12/16 00:11:02;;;;;;;42.08;20.27;;;;;;;0.19;69.95;100911.72;5075569;28;20067;-61
2022/12/16 00:13:29;;;;;;;39.03;20.23;;;;;;;0.25;69.89;100916.34;5075229;28;20426;-61
2022/12/16 00:15:54;;;;;;;34.75;18.75;;;;;;;0.33;69.45;100917.66;5075316;28;20028;-61
2022/12/16 00:18:20;;;;;;;39.80;20.17;;;;;;;0.47;69.06;100916.69;5075225;28;20020;-61
2022/12/16 00:20:51;;;;;;;38.60;21.33;;;;;;;0.49;69.10;100906.34;5075112;28;20559;-61
2022/12/16 00:23:16;;;;;;;39.33;20.83;;;;;;;0.52;69.29;100901.31;5074901;28;20035;-61
2022/12/16 00:25:43;;;;;;;37.67;20.45;;;;;;;0.52;68.51;100905.63;5075047;28;20054;-61
2022/12/16 00:28:10;;;;;;;39.30;20.48;;;;;;;0.52;68.76;100900.44;5075121;28;20029;-61
2022/12/16 00:30:36;;;;;;;38.38;19.98;;;;;;;0.56;68.81;100908.47;5074842;28;20030;-61
2022/12/16 00:33:01;;;;;;;36.63;20.77;;;;;;;0.61;68.24;100893.09;5056797;28;20025;-61
2022/12/16 00:35:26;;;;;;;36.75;20.30;;;;;;;0.61;68.65;100896.59;5074927;28;20036;-61
2022/12/16 00:37:52;;;;;;;40.08;19.92;;;;;;;0.68;68.98;100901.28;5074708;28;20025;-61
2022/12/16 00:40:18;;;;;;;34.25;20.00;;;;;;;0.82;68.29;100896.81;5053895;28;20056;-61
2022/12/16 00:42:43;;;;;;;34.75;19.65;;;;;;;0.89;68.49;100895.38;5074668;28;20105;-61
2022/12/16 00:45:09;;;;;;;39.03;19.48;;;;;;;0.87;67.88;100897.03;5074803;28;20499;-61
2022/12/16 00:47:34;;;;;;;35.55;20.15;;;;;;;0.85;67.97;100896.03;5074616;28;20017;-61
2022/12/16 00:50:00;;;;;;;36.97;19.63;;;;;;;0.84;67.90;100902.06;5056494;28;20401;-61
2022/12/16 00:52:26;;;;;;;37.22;20.10;;;;;;;0.93;68.25;100903.41;5074560;28;20021;-61
2022/12/16 00:54:51;;;;;;;35.97;18.67;;;;;;;1.02;68.15;100902.97;5074142;28;20024;-62
2022/12/16 00:57:16;;;;;;;32.60;19.38;;;;;;;1.11;68.16;100907.75;5074502;28;20060;-61
2022/12/16 00:59:42;;;;;;;34.65;19.33;;;;;;;1.23;67.53;100905.75;5074209;28;20036;-61
2022/12/16 01:02:09;;;;;;;34.95;19.10;;;;;;;1.25;68.04;100907.63;5074034;28;20489;-61
2022/12/16 01:04:35;;;;;;;35.67;19.33;;;;;;;1.26;67.88;100916.31;5074272;28;20032;-61
2022/12/16 01:07:00;;;;;;;42.20;20.35;;;;;;;1.30;68.56;100915.66;5074206;28;20031;-61
2022/12/16 01:09:26;;;;;;;36.58;19.33;;;;;;;1.32;68.15;100913.13;5074135;28;20033;-61
2022/12/16 01:11:51;;;;;;;36.35;19.73;;;;;;;1.45;67.82;100918.09;5074313;28;20056;-61
2022/12/16 01:14:16;;;;;;;34.47;19.00;;;;;;;1.52;67.54;100922.78;5074126;28;20036;-61
2022/12/16 01:16:42;;;;;;;36.33;19.10;;;;;;;1.56;67.13;100931.66;5074021;28;20028;-62
2022/12/16 01:19:07;;;;;;;35.03;20.17;;;;;;;1.54;67.48;100933.28;5074015;28;20017;-61
2022/12/16 01:21:32;;;;;;;38.15;19.90;;;;;;;1.46;68.05;100932.94;5073996;28;20032;-62
2022/12/16 01:23:58;;;;;;;35.80;18.90;;;;;;;1.46;68.43;100931.22;5073922;28;20115;-61
2022/12/16 01:26:23;;;;;;;40.78;19.98;;;;;;;1.40;69.29;100938.72;5073906;28;20394;-61
2022/12/16 01:28:49;;;;;;;34.58;18.70;;;;;;;1.39;68.51;100941.25;5073408;28;20094;-62
2022/12/16 01:31:17;;;;;;;35.95;19.65;;;;;;;1.46;67.92;100943.34;5055781;28;20016;-62
2022/12/16 01:33:42;;;;;;;38.72;19.67;;;;;;;1.42;68.49;100938.81;5073788;28;20060;-62
2022/12/16 01:36:08;;;;;;;39.42;19.13;;;;;;;1.41;68.53;100944.81;5072835;28;20036;-62
2022/12/16 01:38:34;;;;;;;32.47;18.60;;;;;;;1.45;67.82;100942.41;5073443;28;20037;-62
2022/12/16 01:41:00;;;;;;;34.80;18.80;;;;;;;1.46;68.47;100945.94;5073566;28;20031;-62
2022/12/16 01:43:29;;;;;;;32.67;19.55;;;;;;;1.50;67.88;100947.88;5073469;28;20424;-62
2022/12/16 01:46:15;;;;;;;34.17;18.98;;;;;;;1.56;67.66;100950.78;5073752;28;20078;-62
2022/12/16 01:48:48;;;;;;;35.70;19.15;;;;;;;1.57;67.87;100969.88;5073460;28;20028;-62
2022/12/16 01:51:23;;;;;;;36.35;19.75;;;;;;;1.49;68.38;100970.41;5073790;28;20074;-61
2022/12/16 01:53:53;;;;;;;37.92;19.30;;;;;;;1.48;68.53;100970.34;5073301;28;20016;-61
2022/12/16 01:56:23;;;;;;;39.53;19.13;;;;;;;1.49;68.40;100972.09;5073364;28;20052;-62
2022/12/16 01:58:50;;;;;;;34.08;19.52;;;;;;;1.43;68.72;100966.63;5073113;28;20047;-63
2022/12/16 02:01:15;;;;;;;34.95;18.55;;;;;;;1.47;69.07;100964.22;5073026;28;20032;-61
2022/12/16 02:03:41;;;;;;;37.40;19.92;;;;;;;1.50;68.79;100974.81;5073374;28;20025;-62
2022/12/16 02:06:07;;;;;;;37.08;18.73;;;;;;;1.51;69.15;100975.69;5073076;28;20031;-62
2022/12/16 02:08:32;;;;;;;33.50;18.80;;;;;;;1.50;68.75;100974.81;5073086;28;20028;-62
2022/12/16 02:11:14;;;;;;;34.38;18.48;;;;;;;1.56;68.77;100978.53;5072810;28;20032;-62
2022/12/16 02:14:04;;;;;;;33.30;18.48;;;;;;;1.49;69.16;100972.09;5073123;28;20021;-62
2022/12/16 02:16:51;;;;;;;31.77;17.63;;;;;;;1.43;69.69;100974.44;5073097;28;20517;-61
2022/12/16 02:20:11;;;;;;;28.80;17.65;;;;;;;1.55;68.66;100980.25;5072851;28;20032;-62
2022/12/16 02:23:08;;;;;;;32.40;18.02;;;;;;;1.63;68.39;100984.13;5030872;28;20376;-61
2022/12/16 02:25:58;;;;;;;31.23;17.40;;;;;;;1.63;68.21;100983.22;5071900;28;20037;-62
2022/12/16 02:28:47;;;;;;;31.45;17.85;;;;;;;1.68;68.23;100990.44;5072795;28;20036;-61
2022/12/16 02:31:30;;;;;;;33.42;17.27;;;;;;;1.69;68.00;100986.13;5072602;28;20028;-62
2022/12/16 02:34:17;;;;;;;33.72;18.08;;;;;;;1.74;68.05;100995.03;5072698;28;20039;-62
2022/12/16 02:37:01;;;;;;;36.30;18.55;;;;;;;1.79;67.70;100998.75;5072874;28;20029;-62
2022/12/16 02:39:55;;;;;;;31.52;18.13;;;;;;;1.77;67.62;100994.31;5072609;28;20056;-62
2022/12/16 02:42:30;;;;;;;36.35;19.02;;;;;;;1.78;67.92;100996.09;5072079;28;20036;-62
2022/12/16 02:45:22;;;;;;;32.67;18.60;;;;;;;1.80;67.66;100997.03;5072868;28;20036;-62
2022/12/16 02:47:47;;;;;;;32.25;18.50;;;;;;;1.87;67.65;100986.09;5072643;28;20029;-61
2022/12/16 02:50:24;;;;;;;31.42;17.85;;;;;;;1.90;67.74;101001.91;5072524;28;20025;-62
2022/12/16 02:52:53;;;;;;;32.13;18.05;;;;;;;1.90;67.33;101004.50;5072496;28;20044;-61
2022/12/16 02:55:19;;;;;;;29.42;17.95;;;;;;;1.92;67.68;101001.13;5072574;28;20020;-62
2022/12/16 02:58:03;;;;;;;35.53;18.98;;;;;;;1.94;67.84;100998.63;5072532;28;20032;-61
2022/12/16 03:00:40;;;;;;;30.52;17.75;;;;;;;1.91;68.58;100999.34;5072445;28;20021;-62
2022/12/16 03:03:08;;;;;;;32.20;18.50;;;;;;;1.94;68.30;101003.81;5072422;28;20032;-62
2022/12/16 03:05:39;;;;;;;31.38;19.13;;;;;;;1.90;68.33;101002.78;5072706;28;20050;-62
2022/12/16 03:08:10;;;;;;;34.33;19.33;;;;;;;1.92;68.80;101002.84;5072422;28;20483;-61
2022/12/16 03:10:42;;;;;;;32.05;19.02;;;;;;;1.89;68.22;100997.50;5072399;28;20065;-62
2022/12/16 03:13:10;;;;;;;34.20;19.20;;;;;;;1.86;68.63;100995.63;5072457;28;20033;-62
2022/12/16 03:15:39;;;;;;;36.10;19.85;;;;;;;1.87;69.12;101001.72;5072102;28;20496;-62
2022/12/16 03:18:08;;;;;;;37.05;20.35;;;;;;;1.89;69.26;101008.81;5072476;28;20028;-62
2022/12/16 03:20:44;;;;;;;39.75;20.67;;;;;;;1.89;69.41;101008.81;5072290;28;20037;-62
2022/12/16 03:23:15;;;;;;;37.85;21.38;;;;;;;1.79;70.06;101017.00;5054549;28;20031;-62
2022/12/16 03:25:43;;;;;;;35.90;20.20;;;;;;;1.70;70.49;101009.63;5072455;28;20032;-61
2022/12/16 03:28:50;;;;;;;36.50;20.92;;;;;;;1.69;70.71;101017.38;5071946;28;20134;-62
2022/12/16 03:31:54;;;;;;;39.38;20.55;;;;;;;1.76;69.86;101019.47;5027467;28;20129;-61
2022/12/16 03:34:39;;;;;;;34.83;20.13;;;;;;;1.69;71.00;101014.78;5070834;28;20037;-62
2022/12/16 03:37:09;;;;;;;37.17;20.95;;;;;;;1.63;71.18;101017.97;5072297;28;20040;-62
2022/12/16 03:39:41;;;;;;;35.35;20.88;;;;;;;1.62;71.09;101020.47;5053896;28;20044;-61
2022/12/16 03:42:08;;;;;;;34.97;20.42;;;;;;;1.63;71.33;101019.69;5072125;28;20416;-61
2022/12/16 03:44:34;;;;;;;37.55;21.45;;;;;;;1.63;71.74;101022.28;5053977;28;20029;-61
2022/12/16 03:47:00;;;;;;;40.00;20.83;;;;;;;1.64;71.14;101021.47;5072251;28;20102;-62
2022/12/16 03:49:26;;;;;;;36.08;20.83;;;;;;;1.70;70.93;101025.25;5071908;28;20470;-62
2022/12/16 03:51:53;;;;;;;37.53;21.42;;;;;;;1.73;71.03;101030.63;5072112;28;20374;-62
2022/12/16 03:54:19;;;;;;;37.13;21.70;;;;;;;1.69;70.88;101030.41;5071905;28;20017;-60
2022/12/16 03:56:44;;;;;;;38.67;21.33;;;;;;;1.68;71.13;101036.44;5071988;28;20478;-62
2022/12/16 03:59:09;;;;;;;37.90;22.08;;;;;;;1.61;71.77;101039.53;5072998;28;20059;-62
2022/12/16 04:01:36;;;;;;;38.10;21.30;;;;;;;1.58;71.70;101039.38;5075488;28;20056;-62
2022/12/16 04:04:02;;;;;;;41.10;22.10;;;;;;;1.55;72.27;101045.34;5075517;28;20450;-61
2022/12/16 04:06:27;;;;;;;41.75;22.38;;;;;;;1.52;72.32;101049.50;5075266;28;20059;-61
2022/12/16 04:08:53;;;;;;;37.58;21.80;;;;;;;1.47;72.12;101044.94;5057423;28;20033;-62
2022/12/16 04:25:15;;;;;;;42.17;21.05;;;;;;;1.35;74.68;101066.88;5075436;28;20066;-62
2022/12/16 04:27:45;;;;;;;42.38;22.38;;;;;;;1.40;74.56;101063.69;5075181;28;20043;-62
2022/12/16 04:30:19;;;;;;;45.65;23.15;;;;;;;1.42;74.86;101074.19;5074780;28;20039;-61
